Terminal Aerodrome Forecast
Issued by NWS Cleveland, OH

Home | Current Version | Previous Version | Graphics & Text | Print | Product List | Glossary Off
Versions: 1 2 3 4 5 6 7 8 9 10 11 12 13 14 15 16 17 18

000
FTUS41 KCLE 292239 AAA
TAFTOL
TAF AMD
KTOL 292239Z 2923/3018 11007KT P6SM BKN025 OVC100
     FM300300 VRB05KT 5SM BR OVC015
     FM300700 VRB03KT 4SM BR OVC007
     FM301500 25005KT P6SM VCSH OVC015=

USA.gov is the U.S. government's official web portal to all federal, state and local government web resources and services.